sensor_id;sensor_type;location;lat;lon;timestamp;P1;durP1;ratioP1;P2;durP2;ratioP2
19653;SDS011;9975;48.046;7.804;2022-12-07T01:57:18;21.17;;;9.07;;
19653;SDS011;9975;48.046;7.804;2022-12-07T01:59:45;22.10;;;10.50;;
19653;SDS011;9975;48.046;7.804;2022-12-07T02:02:17;23.17;;;10.98;;
19653;SDS011;9975;48.046;7.804;2022-12-07T02:04:51;25.38;;;10.57;;
19653;SDS011;9975;48.046;7.804;2022-12-07T02:07:18;30.30;;;11.80;;
19653;SDS011;9975;48.046;7.804;2022-12-07T02:09:45;24.05;;;11.38;;
19653;SDS011;9975;48.046;7.804;2022-12-07T02:12:11;19.20;;;9.33;;
19653;SDS011;9975;48.046;7.804;2022-12-07T02:14:36;21.83;;;10.70;;
19653;SDS011;9975;48.046;7.804;2022-12-07T02:17:14;19.73;;;9.90;;
19653;SDS011;9975;48.046;7.804;2022-12-07T02:25:41;20.73;;;10.20;;
19653;SDS011;9975;48.046;7.804;2022-12-07T02:28:35;16.83;;;7.78;;
19653;SDS011;9975;48.046;7.804;2022-12-07T02:31:09;21.42;;;10.07;;
19653;SDS011;9975;48.046;7.804;2022-12-07T02:33:49;21.27;;;10.25;;
19653;SDS011;9975;48.046;7.804;2022-12-07T02:36:25;19.10;;;9.52;;
19653;SDS011;9975;48.046;7.804;2022-12-07T02:38:59;21.70;;;11.00;;
19653;SDS011;9975;48.046;7.804;2022-12-07T02:41:46;17.83;;;9.00;;
19653;SDS011;9975;48.046;7.804;2022-12-07T02:44:17;17.52;;;9.13;;
19653;SDS011;9975;48.046;7.804;2022-12-07T02:46:51;16.77;;;9.77;;
19653;SDS011;9975;48.046;7.804;2022-12-07T02:49:28;25.25;;;9.75;;
19653;SDS011;9975;48.046;7.804;2022-12-07T02:51:54;21.92;;;10.43;;
19653;SDS011;9975;48.046;7.804;2022-12-07T02:54:20;17.40;;;9.37;;
19653;SDS011;9975;48.046;7.804;2022-12-07T03:07:21;21.25;;;9.50;;
19653;SDS011;9975;48.046;7.804;2022-12-07T03:12:55;26.35;;;9.38;;
19653;SDS011;9975;48.046;7.804;2022-12-07T03:16:00;20.30;;;9.70;;
19653;SDS011;9975;48.046;7.804;2022-12-07T03:18:42;20.35;;;10.13;;
19653;SDS011;9975;48.046;7.804;2022-12-07T03:21:31;24.33;;;12.93;;
19653;SDS011;9975;48.046;7.804;2022-12-07T03:24:09;13.93;;;8.55;;
19653;SDS011;9975;48.046;7.804;2022-12-07T03:26:41;21.80;;;10.13;;
19653;SDS011;9975;48.046;7.804;2022-12-07T03:29:13;15.82;;;7.97;;
19653;SDS011;9975;48.046;7.804;2022-12-07T03:31:45;18.13;;;9.95;;
19653;SDS011;9975;48.046;7.804;2022-12-07T03:34:32;15.52;;;8.77;;
19653;SDS011;9975;48.046;7.804;2022-12-07T03:37:22;23.50;;;10.20;;
19653;SDS011;9975;48.046;7.804;2022-12-07T03:40:03;16.38;;;8.50;;
19653;SDS011;9975;48.046;7.804;2022-12-07T03:42:50;17.15;;;9.55;;
19653;SDS011;9975;48.046;7.804;2022-12-07T03:45:16;16.23;;;8.70;;
19653;SDS011;9975;48.046;7.804;2022-12-07T03:50:49;17.40;;;8.63;;
19653;SDS011;9975;48.046;7.804;2022-12-07T03:53:20;18.10;;;8.95;;
19653;SDS011;9975;48.046;7.804;2022-12-07T03:55:51;20.60;;;10.68;;
19653;SDS011;9975;48.046;7.804;2022-12-07T03:58:19;18.30;;;9.35;;
19653;SDS011;9975;48.046;7.804;2022-12-07T04:00:47;19.98;;;9.57;;
19653;SDS011;9975;48.046;7.804;2022-12-07T04:03:14;22.20;;;9.82;;
19653;SDS011;9975;48.046;7.804;2022-12-07T04:05:40;18.00;;;9.67;;
19653;SDS011;9975;48.046;7.804;2022-12-07T04:08:06;21.50;;;8.63;;
19653;SDS011;9975;48.046;7.804;2022-12-07T04:10:31;17.80;;;10.30;;
19653;SDS011;9975;48.046;7.804;2022-12-07T04:12:57;19.97;;;10.57;;
19653;SDS011;9975;48.046;7.804;2022-12-07T04:15:23;21.47;;;10.60;;
19653;SDS011;9975;48.046;7.804;2022-12-07T04:17:49;17.48;;;9.30;;
19653;SDS011;9975;48.046;7.804;2022-12-07T04:20:15;21.45;;;9.35;;
19653;SDS011;9975;48.046;7.804;2022-12-07T04:22:41;21.67;;;9.77;;
19653;SDS011;9975;48.046;7.804;2022-12-07T04:25:06;15.80;;;8.67;;
19653;SDS011;9975;48.046;7.804;2022-12-07T04:27:32;20.93;;;9.60;;
19653;SDS011;9975;48.046;7.804;2022-12-07T04:29:58;16.10;;;7.83;;
19653;SDS011;9975;48.046;7.804;2022-12-07T04:32:23;19.67;;;9.73;;
19653;SDS011;9975;48.046;7.804;2022-12-07T04:34:49;23.03;;;9.33;;
19653;SDS011;9975;48.046;7.804;2022-12-07T04:37:15;15.87;;;8.20;;
19653;SDS011;9975;48.046;7.804;2022-12-07T04:39:42;18.98;;;9.75;;
19653;SDS011;9975;48.046;7.804;2022-12-07T04:42:09;18.73;;;10.70;;
19653;SDS011;9975;48.046;7.804;2022-12-07T04:44:35;18.42;;;9.60;;
19653;SDS011;9975;48.046;7.804;2022-12-07T04:47:01;20.97;;;10.90;;
19653;SDS011;9975;48.046;7.804;2022-12-07T04:49:26;23.37;;;10.30;;
19653;SDS011;9975;48.046;7.804;2022-12-07T04:51:52;14.97;;;8.70;;
19653;SDS011;9975;48.046;7.804;2022-12-07T04:54:18;20.13;;;9.97;;
19653;SDS011;9975;48.046;7.804;2022-12-07T04:56:44;21.77;;;9.45;;
19653;SDS011;9975;48.046;7.804;2022-12-07T04:59:14;22.40;;;9.87;;
19653;SDS011;9975;48.046;7.804;2022-12-07T05:01:41;28.05;;;10.40;;
19653;SDS011;9975;48.046;7.804;2022-12-07T05:04:06;17.13;;;9.67;;
19653;SDS011;9975;48.046;7.804;2022-12-07T05:06:32;20.92;;;10.27;;
19653;SDS011;9975;48.046;7.804;2022-12-07T05:08:58;16.30;;;8.57;;
19653;SDS011;9975;48.046;7.804;2022-12-07T05:11:24;16.88;;;8.30;;
19653;SDS011;9975;48.046;7.804;2022-12-07T05:16:40;19.42;;;10.32;;
19653;SDS011;9975;48.046;7.804;2022-12-07T05:19:07;19.50;;;8.95;;
19653;SDS011;9975;48.046;7.804;2022-12-07T05:21:33;24.20;;;9.70;;
19653;SDS011;9975;48.046;7.804;2022-12-07T05:23:59;20.03;;;9.83;;
19653;SDS011;9975;48.046;7.804;2022-12-07T05:26:24;12.90;;;8.17;;
19653;SDS011;9975;48.046;7.804;2022-12-07T05:28:51;15.33;;;8.70;;
19653;SDS011;9975;48.046;7.804;2022-12-07T05:31:17;19.85;;;10.35;;
19653;SDS011;9975;48.046;7.804;2022-12-07T05:33:43;15.73;;;7.53;;
19653;SDS011;9975;48.046;7.804;2022-12-07T05:36:09;16.80;;;8.30;;
19653;SDS011;9975;48.046;7.804;2022-12-07T05:38:34;20.70;;;9.17;;
19653;SDS011;9975;48.046;7.804;2022-12-07T05:41:01;19.10;;;9.00;;
19653;SDS011;9975;48.046;7.804;2022-12-07T05:43:28;14.70;;;7.63;;
19653;SDS011;9975;48.046;7.804;2022-12-07T05:45:54;18.67;;;9.25;;
19653;SDS011;9975;48.046;7.804;2022-12-07T05:48:19;18.63;;;8.20;;
19653;SDS011;9975;48.046;7.804;2022-12-07T05:50:47;22.67;;;10.70;;
19653;SDS011;9975;48.046;7.804;2022-12-07T05:53:13;17.15;;;9.50;;
19653;SDS011;9975;48.046;7.804;2022-12-07T05:55:39;17.53;;;9.53;;
19653;SDS011;9975;48.046;7.804;2022-12-07T05:58:05;23.70;;;11.27;;
19653;SDS011;9975;48.046;7.804;2022-12-07T06:01:00;27.50;;;15.20;;
19653;SDS011;9975;48.046;7.804;2022-12-07T06:03:25;23.93;;;13.20;;
19653;SDS011;9975;48.046;7.804;2022-12-07T06:05:51;34.10;;;18.17;;
19653;SDS011;9975;48.046;7.804;2022-12-07T06:08:17;19.60;;;10.13;;
19653;SDS011;9975;48.046;7.804;2022-12-07T06:10:44;18.85;;;10.18;;
19653;SDS011;9975;48.046;7.804;2022-12-07T06:13:09;15.67;;;8.67;;
19653;SDS011;9975;48.046;7.804;2022-12-07T06:15:35;19.80;;;8.77;;
19653;SDS011;9975;48.046;7.804;2022-12-07T06:18:01;16.00;;;7.65;;
19653;SDS011;9975;48.046;7.804;2022-12-07T06:20:27;18.83;;;8.90;;
19653;SDS011;9975;48.046;7.804;2022-12-07T06:22:52;22.30;;;9.87;;
19653;SDS011;9975;48.046;7.804;2022-12-07T06:25:18;18.77;;;8.00;;
19653;SDS011;9975;48.046;7.804;2022-12-07T06:27:43;16.87;;;7.87;;
19653;SDS011;9975;48.046;7.804;2022-12-07T06:30:09;19.13;;;8.70;;
19653;SDS011;9975;48.046;7.804;2022-12-07T06:32:36;19.27;;;8.23;;
19653;SDS011;9975;48.046;7.804;2022-12-07T06:35:02;22.50;;;11.63;;
19653;SDS011;9975;48.046;7.804;2022-12-07T06:37:28;15.90;;;8.70;;
19653;SDS011;9975;48.046;7.804;2022-12-07T06:39:54;23.40;;;11.00;;
19653;SDS011;9975;48.046;7.804;2022-12-07T06:42:19;18.10;;;9.23;;
19653;SDS011;9975;48.046;7.804;2022-12-07T06:44:46;23.90;;;11.07;;
19653;SDS011;9975;48.046;7.804;2022-12-07T06:47:11;21.93;;;9.93;;
19653;SDS011;9975;48.046;7.804;2022-12-07T06:49:37;20.53;;;9.27;;
19653;SDS011;9975;48.046;7.804;2022-12-07T06:52:03;22.02;;;11.00;;
19653;SDS011;9975;48.046;7.804;2022-12-07T06:54:30;44.50;;;11.23;;
19653;SDS011;9975;48.046;7.804;2022-12-07T06:56:56;24.30;;;9.80;;
19653;SDS011;9975;48.046;7.804;2022-12-07T06:59:22;21.30;;;11.10;;
19653;SDS011;9975;48.046;7.804;2022-12-07T07:01:47;16.73;;;9.30;;
19653;SDS011;9975;48.046;7.804;2022-12-07T07:04:13;19.93;;;10.00;;
19653;SDS011;9975;48.046;7.804;2022-12-07T07:06:39;17.43;;;9.70;;
19653;SDS011;9975;48.046;7.804;2022-12-07T07:09:04;22.00;;;9.63;;
19653;SDS011;9975;48.046;7.804;2022-12-07T07:11:30;21.90;;;11.77;;
19653;SDS011;9975;48.046;7.804;2022-12-07T07:13:56;22.73;;;10.23;;
19653;SDS011;9975;48.046;7.804;2022-12-07T07:16:26;18.70;;;10.02;;
19653;SDS011;9975;48.046;7.804;2022-12-07T07:18:54;26.15;;;11.82;;
19653;SDS011;9975;48.046;7.804;2022-12-07T07:21:20;20.95;;;9.90;;
19653;SDS011;9975;48.046;7.804;2022-12-07T07:23:46;15.37;;;8.23;;
19653;SDS011;9975;48.046;7.804;2022-12-07T07:26:11;17.17;;;9.40;;
19653;SDS011;9975;48.046;7.804;2022-12-07T07:28:37;17.63;;;9.90;;
19653;SDS011;9975;48.046;7.804;2022-12-07T07:31:03;20.67;;;8.83;;
19653;SDS011;9975;48.046;7.804;2022-12-07T07:33:29;18.13;;;8.73;;
19653;SDS011;9975;48.046;7.804;2022-12-07T07:35:55;19.00;;;8.83;;
19653;SDS011;9975;48.046;7.804;2022-12-07T07:38:20;22.13;;;11.67;;
19653;SDS011;9975;48.046;7.804;2022-12-07T07:40:46;17.97;;;8.40;;
19653;SDS011;9975;48.046;7.804;2022-12-07T07:43:12;16.50;;;9.05;;
19653;SDS011;9975;48.046;7.804;2022-12-07T07:45:37;22.90;;;10.70;;
19653;SDS011;9975;48.046;7.804;2022-12-07T07:48:03;19.53;;;11.07;;
19653;SDS011;9975;48.046;7.804;2022-12-07T07:50:29;18.87;;;8.90;;
19653;SDS011;9975;48.046;7.804;2022-12-07T07:52:56;19.45;;;9.05;;
19653;SDS011;9975;48.046;7.804;2022-12-07T07:55:22;20.00;;;9.32;;
19653;SDS011;9975;48.046;7.804;2022-12-07T07:57:48;17.30;;;10.10;;
19653;SDS011;9975;48.046;7.804;2022-12-07T08:00:14;20.00;;;9.27;;
19653;SDS011;9975;48.046;7.804;2022-12-07T08:02:41;22.50;;;11.70;;
19653;SDS011;9975;48.046;7.804;2022-12-07T08:05:08;16.85;;;9.45;;
19653;SDS011;9975;48.046;7.804;2022-12-07T08:07:34;19.05;;;9.32;;
19653;SDS011;9975;48.046;7.804;2022-12-07T08:10:00;15.60;;;8.60;;
19653;SDS011;9975;48.046;7.804;2022-12-07T08:12:26;22.20;;;10.37;;
19653;SDS011;9975;48.046;7.804;2022-12-07T08:14:51;16.83;;;9.80;;
19653;SDS011;9975;48.046;7.804;2022-12-07T08:17:17;17.07;;;8.27;;
19653;SDS011;9975;48.046;7.804;2022-12-07T08:19:42;15.80;;;9.57;;
19653;SDS011;9975;48.046;7.804;2022-12-07T08:22:08;15.57;;;8.17;;
19653;SDS011;9975;48.046;7.804;2022-12-07T08:24:34;19.67;;;9.83;;
19653;SDS011;9975;48.046;7.804;2022-12-07T08:27:01;18.65;;;8.18;;
19653;SDS011;9975;48.046;7.804;2022-12-07T08:29:27;12.55;;;8.40;;
19653;SDS011;9975;48.046;7.804;2022-12-07T08:31:52;19.33;;;9.33;;
19653;SDS011;9975;48.046;7.804;2022-12-07T08:34:18;17.00;;;9.80;;
19653;SDS011;9975;48.046;7.804;2022-12-07T08:36:44;11.30;;;7.60;;
19653;SDS011;9975;48.046;7.804;2022-12-07T08:39:09;13.43;;;7.30;;
19653;SDS011;9975;48.046;7.804;2022-12-07T08:41:35;13.50;;;7.00;;
19653;SDS011;9975;48.046;7.804;2022-12-07T08:44:00;12.93;;;6.63;;
19653;SDS011;9975;48.046;7.804;2022-12-07T08:49:12;9.10;;;5.60;;
19653;SDS011;9975;48.046;7.804;2022-12-07T08:51:41;12.50;;;7.35;;
19653;SDS011;9975;48.046;7.804;2022-12-07T08:54:11;13.25;;;7.40;;
19653;SDS011;9975;48.046;7.804;2022-12-07T08:56:39;16.90;;;8.88;;
19653;SDS011;9975;48.046;7.804;2022-12-07T08:59:06;11.50;;;7.75;;
19653;SDS011;9975;48.046;7.804;2022-12-07T09:01:32;15.07;;;7.57;;
19653;SDS011;9975;48.046;7.804;2022-12-07T09:03:58;13.27;;;7.23;;
19653;SDS011;9975;48.046;7.804;2022-12-07T09:06:23;9.63;;;5.87;;
19653;SDS011;9975;48.046;7.804;2022-12-07T09:08:50;13.13;;;7.47;;
19653;SDS011;9975;48.046;7.804;2022-12-07T09:11:20;12.40;;;6.38;;
19653;SDS011;9975;48.046;7.804;2022-12-07T09:13:46;14.63;;;6.00;;
19653;SDS011;9975;48.046;7.804;2022-12-07T09:16:12;6.03;;;3.63;;
19653;SDS011;9975;48.046;7.804;2022-12-07T09:18:37;8.50;;;4.67;;
19653;SDS011;9975;48.046;7.804;2022-12-07T09:21:03;7.63;;;4.40;;
19653;SDS011;9975;48.046;7.804;2022-12-07T09:23:29;7.22;;;4.50;;
19653;SDS011;9975;48.046;7.804;2022-12-07T09:25:58;7.17;;;4.80;;
19653;SDS011;9975;48.046;7.804;2022-12-07T09:28:25;10.50;;;5.53;;
19653;SDS011;9975;48.046;7.804;2022-12-07T09:30:51;9.25;;;5.10;;
19653;SDS011;9975;48.046;7.804;2022-12-07T09:33:17;7.73;;;4.70;;
19653;SDS011;9975;48.046;7.804;2022-12-07T09:35:49;9.47;;;5.60;;
19653;SDS011;9975;48.046;7.804;2022-12-07T09:38:16;8.10;;;4.72;;
19653;SDS011;9975;48.046;7.804;2022-12-07T09:40:42;7.07;;;3.90;;
19653;SDS011;9975;48.046;7.804;2022-12-07T09:43:17;8.50;;;4.80;;
19653;SDS011;9975;48.046;7.804;2022-12-07T09:45:45;8.03;;;5.47;;
19653;SDS011;9975;48.046;7.804;2022-12-07T09:48:18;8.27;;;5.43;;
19653;SDS011;9975;48.046;7.804;2022-12-07T09:50:47;9.27;;;4.90;;
19653;SDS011;9975;48.046;7.804;2022-12-07T09:55:59;9.13;;;5.00;;
19653;SDS011;9975;48.046;7.804;2022-12-07T09:58:25;9.93;;;6.37;;
19653;SDS011;9975;48.046;7.804;2022-12-07T10:00:53;7.57;;;4.80;;
19653;SDS011;9975;48.046;7.804;2022-12-07T10:03:25;10.23;;;4.87;;
19653;SDS011;9975;48.046;7.804;2022-12-07T10:05:54;9.20;;;6.40;;
19653;SDS011;9975;48.046;7.804;2022-12-07T10:08:20;10.30;;;5.50;;
19653;SDS011;9975;48.046;7.804;2022-12-07T10:10:49;9.63;;;4.60;;
19653;SDS011;9975;48.046;7.804;2022-12-07T10:14:09;8.27;;;5.40;;
19653;SDS011;9975;48.046;7.804;2022-12-07T10:18:57;8.00;;;5.00;;
19653;SDS011;9975;48.046;7.804;2022-12-07T10:22:05;7.87;;;5.27;;
19653;SDS011;9975;48.046;7.804;2022-12-07T10:24:35;8.77;;;4.87;;
19653;SDS011;9975;48.046;7.804;2022-12-07T10:27:04;9.73;;;6.10;;
19653;SDS011;9975;48.046;7.804;2022-12-07T10:29:31;6.20;;;4.37;;
19653;SDS011;9975;48.046;7.804;2022-12-07T10:32:00;5.80;;;4.73;;
19653;SDS011;9975;48.046;7.804;2022-12-07T10:39:46;9.07;;;4.50;;
19653;SDS011;9975;48.046;7.804;2022-12-07T10:44:50;9.63;;;5.30;;
19653;SDS011;9975;48.046;7.804;2022-12-07T10:47:53;5.37;;;3.50;;
19653;SDS011;9975;48.046;7.804;2022-12-07T10:53:30;8.07;;;3.90;;
19653;SDS011;9975;48.046;7.804;2022-12-07T10:56:33;4.37;;;3.50;;
19653;SDS011;9975;48.046;7.804;2022-12-07T11:00:00;6.50;;;4.10;;
19653;SDS011;9975;48.046;7.804;2022-12-07T11:05:23;6.83;;;5.23;;
19653;SDS011;9975;48.046;7.804;2022-12-07T11:13:56;6.80;;;4.90;;
19653;SDS011;9975;48.046;7.804;2022-12-07T11:18:59;10.00;;;4.97;;
19653;SDS011;9975;48.046;7.804;2022-12-07T11:21:45;7.07;;;4.40;;
19653;SDS011;9975;48.046;7.804;2022-12-07T11:24:27;5.80;;;4.03;;
19653;SDS011;9975;48.046;7.804;2022-12-07T11:27:14;6.20;;;3.93;;
19653;SDS011;9975;48.046;7.804;2022-12-07T11:29:58;8.43;;;4.77;;
19653;SDS011;9975;48.046;7.804;2022-12-07T11:32:49;6.90;;;3.90;;
19653;SDS011;9975;48.046;7.804;2022-12-07T11:40:43;5.27;;;3.80;;
19653;SDS011;9975;48.046;7.804;2022-12-07T11:45:42;9.40;;;5.23;;
19653;SDS011;9975;48.046;7.804;2022-12-07T11:48:17;5.60;;;4.07;;
19653;SDS011;9975;48.046;7.804;2022-12-07T11:50:51;7.20;;;4.00;;
19653;SDS011;9975;48.046;7.804;2022-12-07T11:53:44;7.53;;;5.63;;
19653;SDS011;9975;48.046;7.804;2022-12-07T11:56:30;5.57;;;4.00;;
19653;SDS011;9975;48.046;7.804;2022-12-07T12:01:55;7.33;;;3.90;;
19653;SDS011;9975;48.046;7.804;2022-12-07T12:04:29;6.07;;;3.30;;
19653;SDS011;9975;48.046;7.804;2022-12-07T12:07:16;5.37;;;3.80;;
19653;SDS011;9975;48.046;7.804;2022-12-07T12:09:53;7.90;;;4.50;;
19653;SDS011;9975;48.046;7.804;2022-12-07T12:12:41;5.97;;;4.50;;
19653;SDS011;9975;48.046;7.804;2022-12-07T12:25:55;6.43;;;3.80;;
19653;SDS011;9975;48.046;7.804;2022-12-07T12:31:14;9.10;;;3.77;;
19653;SDS011;9975;48.046;7.804;2022-12-07T12:39:26;3.47;;;2.83;;
19653;SDS011;9975;48.046;7.804;2022-12-07T12:43:59;4.10;;;2.80;;
19653;SDS011;9975;48.046;7.804;2022-12-07T12:46:45;8.33;;;3.80;;
19653;SDS011;9975;48.046;7.804;2022-12-07T12:51:52;5.13;;;3.87;;
19653;SDS011;9975;48.046;7.804;2022-12-07T12:57:34;5.30;;;3.70;;
19653;SDS011;9975;48.046;7.804;2022-12-07T13:02:48;6.47;;;3.73;;
19653;SDS011;9975;48.046;7.804;2022-12-07T13:05:18;4.90;;;3.17;;
19653;SDS011;9975;48.046;7.804;2022-12-07T13:10:20;4.03;;;2.20;;
19653;SDS011;9975;48.046;7.804;2022-12-07T13:15:44;5.17;;;3.40;;
19653;SDS011;9975;48.046;7.804;2022-12-07T13:29:07;4.70;;;3.13;;
19653;SDS011;9975;48.046;7.804;2022-12-07T13:31:47;7.63;;;3.00;;
19653;SDS011;9975;48.046;7.804;2022-12-07T13:34:31;4.80;;;3.00;;
19653;SDS011;9975;48.046;7.804;2022-12-07T13:37:02;7.50;;;2.80;;
19653;SDS011;9975;48.046;7.804;2022-12-07T13:39:46;4.83;;;2.43;;
19653;SDS011;9975;48.046;7.804;2022-12-07T13:42:20;26.10;;;10.10;;
19653;SDS011;9975;48.046;7.804;2022-12-07T13:44:55;3.53;;;2.53;;
19653;SDS011;9975;48.046;7.804;2022-12-07T13:49:54;2.50;;;1.87;;
19653;SDS011;9975;48.046;7.804;2022-12-07T13:52:25;2.97;;;2.33;;
19653;SDS011;9975;48.046;7.804;2022-12-07T13:54:57;4.07;;;2.67;;
19653;SDS011;9975;48.046;7.804;2022-12-07T13:57:29;6.50;;;3.03;;
19653;SDS011;9975;48.046;7.804;2022-12-07T13:59:56;5.07;;;3.20;;
19653;SDS011;9975;48.046;7.804;2022-12-07T14:02:27;4.37;;;2.40;;
19653;SDS011;9975;48.046;7.804;2022-12-07T14:07:59;4.43;;;2.53;;
19653;SDS011;9975;48.046;7.804;2022-12-07T14:10:27;5.43;;;3.10;;
19653;SDS011;9975;48.046;7.804;2022-12-07T14:12:55;5.27;;;3.50;;
19653;SDS011;9975;48.046;7.804;2022-12-07T14:15:23;8.53;;;3.50;;
19653;SDS011;9975;48.046;7.804;2022-12-07T14:17:52;6.80;;;4.00;;
19653;SDS011;9975;48.046;7.804;2022-12-07T14:20:35;6.03;;;3.70;;
19653;SDS011;9975;48.046;7.804;2022-12-07T14:23:03;8.93;;;3.90;;
19653;SDS011;9975;48.046;7.804;2022-12-07T14:28:30;5.70;;;3.87;;
19653;SDS011;9975;48.046;7.804;2022-12-07T14:30:57;6.33;;;3.70;;
19653;SDS011;9975;48.046;7.804;2022-12-07T14:33:24;7.30;;;4.23;;
19653;SDS011;9975;48.046;7.804;2022-12-07T14:35:50;7.63;;;4.20;;
19653;SDS011;9975;48.046;7.804;2022-12-07T14:38:20;7.43;;;4.00;;
19653;SDS011;9975;48.046;7.804;2022-12-07T14:40:46;7.77;;;4.73;;
19653;SDS011;9975;48.046;7.804;2022-12-07T14:43:14;6.93;;;5.00;;
19653;SDS011;9975;48.046;7.804;2022-12-07T14:45:41;7.60;;;4.80;;
19653;SDS011;9975;48.046;7.804;2022-12-07T14:48:07;7.80;;;4.87;;
19653;SDS011;9975;48.046;7.804;2022-12-07T14:50:38;9.60;;;6.07;;
19653;SDS011;9975;48.046;7.804;2022-12-07T14:53:17;11.40;;;5.70;;
19653;SDS011;9975;48.046;7.804;2022-12-07T14:55:46;11.37;;;5.30;;
19653;SDS011;9975;48.046;7.804;2022-12-07T14:58:12;14.27;;;7.57;;
19653;SDS011;9975;48.046;7.804;2022-12-07T15:00:39;12.70;;;6.83;;
19653;SDS011;9975;48.046;7.804;2022-12-07T15:03:05;13.90;;;8.20;;
19653;SDS011;9975;48.046;7.804;2022-12-07T15:05:31;19.10;;;10.43;;
19653;SDS011;9975;48.046;7.804;2022-12-07T15:07:58;10.97;;;6.73;;
19653;SDS011;9975;48.046;7.804;2022-12-07T15:10:24;20.77;;;11.40;;
19653;SDS011;9975;48.046;7.804;2022-12-07T15:12:55;23.10;;;9.17;;
19653;SDS011;9975;48.046;7.804;2022-12-07T15:15:41;10.37;;;6.43;;
19653;SDS011;9975;48.046;7.804;2022-12-07T15:18:06;13.33;;;7.80;;
19653;SDS011;9975;48.046;7.804;2022-12-07T15:20:32;13.70;;;8.80;;
19653;SDS011;9975;48.046;7.804;2022-12-07T15:22:58;13.20;;;6.90;;
19653;SDS011;9975;48.046;7.804;2022-12-07T15:25:24;14.47;;;8.13;;
19653;SDS011;9975;48.046;7.804;2022-12-07T15:27:49;11.40;;;7.27;;
19653;SDS011;9975;48.046;7.804;2022-12-07T15:30:15;18.07;;;8.50;;
19653;SDS011;9975;48.046;7.804;2022-12-07T15:32:41;15.60;;;9.40;;
19653;SDS011;9975;48.046;7.804;2022-12-07T15:35:06;18.73;;;9.93;;
19653;SDS011;9975;48.046;7.804;2022-12-07T15:37:32;16.10;;;7.87;;
19653;SDS011;9975;48.046;7.804;2022-12-07T15:39:58;13.70;;;8.67;;
19653;SDS011;9975;48.046;7.804;2022-12-07T15:42:24;12.40;;;8.30;;
19653;SDS011;9975;48.046;7.804;2022-12-07T15:44:49;11.67;;;7.70;;
19653;SDS011;9975;48.046;7.804;2022-12-07T15:47:38;12.10;;;7.63;;
19653;SDS011;9975;48.046;7.804;2022-12-07T15:50:09;16.23;;;9.40;;
19653;SDS011;9975;48.046;7.804;2022-12-07T15:52:39;15.27;;;10.53;;
19653;SDS011;9975;48.046;7.804;2022-12-07T15:55:08;17.53;;;11.40;;
19653;SDS011;9975;48.046;7.804;2022-12-07T15:57:36;21.90;;;13.03;;
19653;SDS011;9975;48.046;7.804;2022-12-07T16:00:06;24.53;;;12.80;;
19653;SDS011;9975;48.046;7.804;2022-12-07T16:02:36;21.60;;;13.30;;
19653;SDS011;9975;48.046;7.804;2022-12-07T16:05:02;24.10;;;12.60;;
19653;SDS011;9975;48.046;7.804;2022-12-07T16:07:27;32.47;;;14.03;;
19653;SDS011;9975;48.046;7.804;2022-12-07T16:09:53;33.63;;;16.00;;
19653;SDS011;9975;48.046;7.804;2022-12-07T16:12:19;22.00;;;11.37;;
19653;SDS011;9975;48.046;7.804;2022-12-07T16:14:45;27.20;;;14.57;;
19653;SDS011;9975;48.046;7.804;2022-12-07T16:17:11;16.45;;;9.82;;
19653;SDS011;9975;48.046;7.804;2022-12-07T16:19:36;21.53;;;11.50;;
19653;SDS011;9975;48.046;7.804;2022-12-07T16:22:02;19.60;;;9.50;;
19653;SDS011;9975;48.046;7.804;2022-12-07T16:24:29;16.42;;;8.32;;
19653;SDS011;9975;48.046;7.804;2022-12-07T16:26:55;15.25;;;8.93;;
19653;SDS011;9975;48.046;7.804;2022-12-07T16:29:22;12.77;;;6.70;;
19653;SDS011;9975;48.046;7.804;2022-12-07T16:31:48;19.53;;;8.40;;
19653;SDS011;9975;48.046;7.804;2022-12-07T16:34:14;19.65;;;8.27;;
19653;SDS011;9975;48.046;7.804;2022-12-07T16:36:40;14.38;;;8.00;;
19653;SDS011;9975;48.046;7.804;2022-12-07T16:39:06;17.53;;;9.63;;
19653;SDS011;9975;48.046;7.804;2022-12-07T16:41:32;34.37;;;17.97;;
19653;SDS011;9975;48.046;7.804;2022-12-07T16:44:01;25.63;;;15.57;;
19653;SDS011;9975;48.046;7.804;2022-12-07T16:46:29;18.42;;;9.93;;
19653;SDS011;9975;48.046;7.804;2022-12-07T16:48:56;11.35;;;5.78;;
19653;SDS011;9975;48.046;7.804;2022-12-07T16:51:21;8.43;;;4.20;;
19653;SDS011;9975;48.046;7.804;2022-12-07T16:53:47;6.57;;;4.37;;
19653;SDS011;9975;48.046;7.804;2022-12-07T16:56:13;7.10;;;3.73;;
19653;SDS011;9975;48.046;7.804;2022-12-07T16:58:43;6.43;;;5.65;;
19653;SDS011;9975;48.046;7.804;2022-12-07T17:01:12;5.28;;;2.90;;
19653;SDS011;9975;48.046;7.804;2022-12-07T17:03:39;9.85;;;3.20;;
19653;SDS011;9975;48.046;7.804;2022-12-07T17:06:25;3.97;;;2.70;;
19653;SDS011;9975;48.046;7.804;2022-12-07T17:08:52;11.40;;;6.55;;
19653;SDS011;9975;48.046;7.804;2022-12-07T17:11:20;13.05;;;8.30;;
19653;SDS011;9975;48.046;7.804;2022-12-07T17:13:48;12.80;;;5.90;;
19653;SDS011;9975;48.046;7.804;2022-12-07T17:16:33;14.95;;;8.38;;
19653;SDS011;9975;48.046;7.804;2022-12-07T17:18:59;22.52;;;11.88;;
19653;SDS011;9975;48.046;7.804;2022-12-07T17:21:28;31.08;;;12.50;;
19653;SDS011;9975;48.046;7.804;2022-12-07T17:23:54;25.47;;;11.83;;
19653;SDS011;9975;48.046;7.804;2022-12-07T17:26:23;19.40;;;9.50;;
19653;SDS011;9975;48.046;7.804;2022-12-07T17:28:50;10.77;;;6.10;;
19653;SDS011;9975;48.046;7.804;2022-12-07T17:31:17;9.50;;;5.57;;
19653;SDS011;9975;48.046;7.804;2022-12-07T17:33:44;17.80;;;8.55;;
19653;SDS011;9975;48.046;7.804;2022-12-07T17:36:10;12.70;;;8.40;;
19653;SDS011;9975;48.046;7.804;2022-12-07T17:38:47;11.40;;;6.28;;
19653;SDS011;9975;48.046;7.804;2022-12-07T17:41:14;15.32;;;8.75;;
19653;SDS011;9975;48.046;7.804;2022-12-07T17:44:05;9.43;;;5.05;;
19653;SDS011;9975;48.046;7.804;2022-12-07T17:46:43;7.32;;;3.35;;
19653;SDS011;9975;48.046;7.804;2022-12-07T17:49:09;9.40;;;4.53;;
19653;SDS011;9975;48.046;7.804;2022-12-07T17:51:35;16.63;;;7.30;;
19653;SDS011;9975;48.046;7.804;2022-12-07T17:54:19;13.82;;;7.15;;
19653;SDS011;9975;48.046;7.804;2022-12-07T17:56:45;14.10;;;8.55;;
19653;SDS011;9975;48.046;7.804;2022-12-07T17:59:11;20.20;;;10.32;;
19653;SDS011;9975;48.046;7.804;2022-12-07T18:01:37;10.80;;;7.10;;
19653;SDS011;9975;48.046;7.804;2022-12-07T18:04:03;7.07;;;5.95;;
19653;SDS011;9975;48.046;7.804;2022-12-07T18:06:30;5.32;;;3.80;;
19653;SDS011;9975;48.046;7.804;2022-12-07T18:08:56;5.28;;;3.03;;
19653;SDS011;9975;48.046;7.804;2022-12-07T18:11:23;8.98;;;4.55;;
19653;SDS011;9975;48.046;7.804;2022-12-07T18:13:48;11.17;;;6.27;;
19653;SDS011;9975;48.046;7.804;2022-12-07T18:16:15;13.85;;;7.13;;
19653;SDS011;9975;48.046;7.804;2022-12-07T18:18:43;13.57;;;8.35;;
19653;SDS011;9975;48.046;7.804;2022-12-07T18:21:12;12.18;;;9.15;;
19653;SDS011;9975;48.046;7.804;2022-12-07T18:23:41;25.92;;;13.95;;
19653;SDS011;9975;48.046;7.804;2022-12-07T18:26:11;21.88;;;12.57;;
19653;SDS011;9975;48.046;7.804;2022-12-07T18:28:38;15.63;;;8.65;;
19653;SDS011;9975;48.046;7.804;2022-12-07T18:31:07;14.93;;;8.82;;
19653;SDS011;9975;48.046;7.804;2022-12-07T18:33:33;11.45;;;7.70;;
19653;SDS011;9975;48.046;7.804;2022-12-07T18:35:59;11.43;;;6.72;;
19653;SDS011;9975;48.046;7.804;2022-12-07T18:38:26;15.77;;;8.30;;
19653;SDS011;9975;48.046;7.804;2022-12-07T18:40:52;29.23;;;19.02;;
19653;SDS011;9975;48.046;7.804;2022-12-07T18:43:18;31.70;;;14.77;;
19653;SDS011;9975;48.046;7.804;2022-12-07T18:45:56;13.57;;;6.70;;
19653;SDS011;9975;48.046;7.804;2022-12-07T18:48:22;23.67;;;10.70;;
19653;SDS011;9975;48.046;7.804;2022-12-07T18:50:58;25.15;;;12.77;;
19653;SDS011;9975;48.046;7.804;2022-12-07T18:53:27;31.55;;;16.30;;
19653;SDS011;9975;48.046;7.804;2022-12-07T18:58:50;10.05;;;6.78;;
19653;SDS011;9975;48.046;7.804;2022-12-07T19:01:37;8.15;;;5.38;;
19653;SDS011;9975;48.046;7.804;2022-12-07T19:04:03;8.57;;;4.53;;